Time;durP1;ratioP1;P1;durP2;ratioP2;P2;SDS_P1;SDS_P2;PMS_P1;PMS_P2;Temp;Humidity;BMP_temperature;BMP_pressure;BME280_temperature;BME280_humidity;BME280_pressure;Samples;Min_cycle;Max_cycle;Signal;HPM_P1;HPM_P2
2023/12/23 00:00:39;;;;;;;8.30;1.07;;;3.00;99.90;;;;;;5062617;28;20310;-56
2023/12/23 00:03:07;;;;;;;5.30;1.17;;;3.00;99.90;;;;;;5072840;28;20199;-57
2023/12/23 00:05:34;;;;;;;4.07;1.00;;;3.00;99.90;;;;;;5065116;28;20287;-57
2023/12/23 00:08:01;;;;;;;4.77;0.87;;;3.00;99.90;;;;;;5072671;28;20684;-57
2023/12/23 00:10:27;;;;;;;7.63;1.50;;;3.10;99.90;;;;;;5063976;28;20242;-57
2023/12/23 00:12:54;;;;;;;6.27;0.93;;;3.10;99.90;;;;;;5068320;28;20263;-57
2023/12/23 00:15:20;;;;;;;5.30;1.20;;;3.10;99.90;;;;;;5066150;28;20187;-58
2023/12/23 00:17:47;;;;;;;4.50;1.10;;;3.10;99.90;;;;;;5069903;28;20245;-58
2023/12/23 00:20:15;;;;;;;6.93;1.57;;;3.10;99.90;;;;;;5076088;28;20271;-57
2023/12/23 00:22:42;;;;;;;10.07;1.07;;;3.10;99.90;;;;;;5078331;28;20186;-58
2023/12/23 00:25:09;;;;;;;4.77;1.00;;;3.10;99.90;;;;;;5063037;28;20275;-57
2023/12/23 00:27:36;;;;;;;7.40;1.70;;;3.10;99.90;;;;;;5068141;28;20185;-58
2023/12/23 00:30:03;;;;;;;5.07;0.90;;;3.10;99.90;;;;;;5076725;28;20214;-54
2023/12/23 00:32:29;;;;;;;4.73;0.90;;;3.20;99.90;;;;;;5075186;28;20190;-58
2023/12/23 00:34:56;;;;;;;6.83;1.50;;;3.20;99.90;;;;;;5076888;28;20202;-56
2023/12/23 00:37:24;;;;;;;3.27;1.00;;;3.20;99.90;;;;;;5071283;28;20816;-57
2023/12/23 00:39:51;;;;;;;4.23;1.00;;;3.20;99.90;;;;;;5055484;28;20307;-58
2023/12/23 00:42:19;;;;;;;2.50;1.20;;;3.10;99.90;;;;;;5081863;28;20763;-54
2023/12/23 00:44:46;;;;;;;3.30;1.00;;;3.10;99.90;;;;;;5079465;28;20194;-57
2023/12/23 00:47:14;;;;;;;5.67;1.10;;;3.10;99.90;;;;;;5078058;28;20195;-58
2023/12/23 00:49:41;;;;;;;4.80;1.20;;;3.10;99.90;;;;;;5076831;28;20240;-56
2023/12/23 00:52:08;;;;;;;2.80;1.20;;;3.00;99.90;;;;;;5075349;28;20239;-56
2023/12/23 00:54:36;;;;;;;8.07;0.80;;;3.10;99.90;;;;;;5073322;28;20263;-57
2023/12/23 00:57:03;;;;;;;6.27;1.20;;;3.00;99.90;;;;;;5068170;28;20206;-58
2023/12/23 00:59:29;;;;;;;9.03;1.60;;;3.10;99.90;;;;;;5070085;28;20213;-58
2023/12/23 01:01:57;;;;;;;8.57;1.20;;;3.10;99.90;;;;;;5066264;28;21138;-57
2023/12/23 01:04:24;;;;;;;11.13;1.60;;;3.10;99.90;;;;;;5074796;28;20274;-57
2023/12/23 01:06:51;;;;;;;5.03;1.27;;;3.10;99.90;;;;;;5064899;28;20230;-56
2023/12/23 01:09:18;;;;;;;5.50;1.07;;;3.10;99.90;;;;;;5075238;28;20233;-55
2023/12/23 01:11:46;;;;;;;10.53;1.20;;;3.00;99.90;;;;;;5064039;28;20212;-57
2023/12/23 01:14:13;;;;;;;6.20;1.20;;;3.00;99.90;;;;;;5074930;28;20212;-58
2023/12/23 01:16:40;;;;;;;7.33;1.20;;;3.00;99.90;;;;;;5074326;28;20186;-56
2023/12/23 01:19:06;;;;;;;9.33;1.37;;;3.00;99.90;;;;;;5074519;28;20213;-57
2023/12/23 01:21:33;;;;;;;4.97;1.17;;;2.90;99.90;;;;;;5075817;28;20652;-56
2023/12/23 01:24:00;;;;;;;7.27;1.10;;;2.90;99.90;;;;;;5069063;28;20934;-58
2023/12/23 01:26:27;;;;;;;6.97;0.97;;;2.90;99.90;;;;;;5060891;28;20193;-58
2023/12/23 01:29:00;;;;;;;6.97;1.20;;;2.90;99.90;;;;;;5076036;28;20197;-57
2023/12/23 01:31:27;;;;;;;5.90;1.10;;;2.90;99.90;;;;;;5071346;28;20301;-57
2023/12/23 01:33:54;;;;;;;7.57;1.37;;;2.80;99.90;;;;;;5071840;28;20189;-57
2023/12/23 01:36:21;;;;;;;4.97;1.10;;;2.80;99.90;;;;;;5068332;28;20190;-58
2023/12/23 01:38:47;;;;;;;5.93;1.27;;;2.80;99.90;;;;;;5074870;28;20230;-58
2023/12/23 01:41:14;;;;;;;8.43;1.33;;;2.80;99.90;;;;;;5053730;28;20230;-57
2023/12/23 01:43:41;;;;;;;6.70;1.30;;;2.80;99.90;;;;;;5077620;28;20190;-57
2023/12/23 01:46:09;;;;;;;5.60;1.10;;;2.80;99.90;;;;;;5072633;28;20190;-58
2023/12/23 01:48:40;;;;;;;7.30;1.07;;;2.70;99.90;;;;;;5070917;28;20610;-58
2023/12/23 01:51:09;;;;;;;4.80;0.70;;;2.70;99.90;;;;;;5070513;28;20206;-58
2023/12/23 01:53:37;;;;;;;10.03;1.07;;;2.70;99.90;;;;;;5077688;28;20235;-58
2023/12/23 01:56:04;;;;;;;5.33;1.10;;;2.70;99.90;;;;;;5073966;28;20202;-57
2023/12/23 01:58:31;;;;;;;10.33;1.00;;;2.70;99.90;;;;;;5064847;28;20221;-54
2023/12/23 02:00:57;;;;;;;9.20;1.80;;;2.70;99.90;;;;;;5066900;28;20881;-58
2023/12/23 02:03:28;;;;;;;7.17;1.47;;;2.80;99.90;;;;;;5083968;28;20190;-57
2023/12/23 02:05:56;;;;;;;7.17;1.53;;;2.90;99.90;;;;;;5078712;28;20197;-58
2023/12/23 02:08:23;;;;;;;8.50;1.30;;;2.90;99.90;;;;;;5082549;28;20243;-57
2023/12/23 02:11:00;;;;;;;7.93;1.17;;;3.00;99.90;;;;;;5090326;28;20686;-55
2023/12/23 02:13:30;;;;;;;5.67;1.17;;;3.00;99.90;;;;;;5057893;28;20230;-56
2023/12/23 02:15:58;;;;;;;5.30;0.83;;;3.00;99.90;;;;;;5084662;28;20189;-57
2023/12/23 02:18:26;;;;;;;6.53;1.20;;;3.00;99.90;;;;;;5077812;28;20241;-55
2023/12/23 02:20:54;;;;;;;7.17;0.83;;;3.00;99.90;;;;;;5076399;28;20953;-57
2023/12/23 02:23:21;;;;;;;4.07;0.80;;;3.10;99.90;;;;;;5080668;28;20263;-57
2023/12/23 02:25:55;;;;;;;3.53;1.00;;;3.10;99.90;;;;;;5069570;28;20601;-57
2023/12/23 02:28:23;;;;;;;4.23;1.23;;;3.10;99.90;;;;;;5074745;28;20283;-57
2023/12/23 02:30:52;;;;;;;0.77;0.40;;;3.20;99.90;;;;;;5083930;28;20214;-55
2023/12/23 02:33:19;;;;;;;5.63;1.10;;;3.30;99.90;;;;;;5074917;28;20190;-56
2023/12/23 02:35:52;;;;;;;1.83;0.70;;;3.30;99.90;;;;;;5070247;28;20225;-56
2023/12/23 02:38:21;;;;;;;3.03;0.60;;;3.20;99.90;;;;;;5071922;28;20243;-56
2023/12/23 02:40:48;;;;;;;5.70;0.80;;;3.10;99.90;;;;;;5069701;28;20217;-59
2023/12/23 02:43:15;;;;;;;3.93;0.70;;;3.00;99.90;;;;;;5059571;28;20249;-57
2023/12/23 02:45:42;;;;;;;7.53;1.07;;;3.00;99.90;;;;;;5079968;28;20186;-56
2023/12/23 02:48:10;;;;;;;4.73;1.13;;;3.00;99.90;;;;;;5070204;28;20895;-58
2023/12/23 02:50:36;;;;;;;5.43;0.80;;;3.00;99.90;;;;;;5084819;28;20270;-56
2023/12/23 02:53:03;;;;;;;6.27;1.03;;;3.00;99.90;;;;;;5073946;28;20366;-56
2023/12/23 02:55:33;;;;;;;2.00;0.57;;;3.10;99.90;;;;;;5087973;28;20203;-58
2023/12/23 02:58:01;;;;;;;9.30;1.17;;;3.10;99.90;;;;;;5078238;28;20899;-57
2023/12/23 03:00:28;;;;;;;5.30;1.20;;;3.10;99.90;;;;;;5064385;28;20225;-58
2023/12/23 03:02:56;;;;;;;11.17;1.53;;;3.10;99.90;;;;;;5073233;28;20209;-57
2023/12/23 03:05:23;;;;;;;8.90;1.37;;;3.10;99.90;;;;;;5088633;28;20194;-58
2023/12/23 03:07:50;;;;;;;6.80;1.47;;;3.10;99.90;;;;;;5091852;28;20590;-56
2023/12/23 03:10:17;;;;;;;8.40;1.40;;;3.10;99.90;;;;;;5084760;28;20275;-58
2023/12/23 03:12:45;;;;;;;6.03;1.23;;;3.10;99.90;;;;;;5085143;28;20204;-58
2023/12/23 03:15:12;;;;;;;6.07;1.23;;;3.10;99.90;;;;;;5064811;28;20209;-56
2023/12/23 03:17:39;;;;;;;6.97;1.50;;;3.10;99.90;;;;;;5095455;28;20201;-58
2023/12/23 03:20:08;;;;;;;8.03;1.30;;;3.20;99.90;;;;;;5085990;28;20221;-58
2023/12/23 03:22:35;;;;;;;4.17;1.20;;;3.20;99.90;;;;;;5072447;28;20218;-58
2023/12/23 03:25:02;;;;;;;5.93;1.07;;;3.20;99.90;;;;;;5086409;28;20834;-57
2023/12/23 03:27:29;;;;;;;8.23;1.20;;;3.30;99.90;;;;;;5099272;28;20189;-57
2023/12/23 03:29:57;;;;;;;9.57;1.20;;;3.30;99.90;;;;;;5057781;28;26625;-58
2023/12/23 03:32:24;;;;;;;6.40;1.00;;;3.30;99.90;;;;;;5080576;28;20186;-58
2023/12/23 03:34:52;;;;;;;5.60;1.03;;;3.40;99.90;;;;;;5069458;28;20200;-58
2023/12/23 03:37:19;;;;;;;6.33;1.03;;;3.40;99.90;;;;;;5074774;28;20194;-58
2023/12/23 03:39:46;;;;;;;10.57;1.93;;;3.40;99.90;;;;;;5069603;28;20209;-58
2023/12/23 03:42:12;;;;;;;3.83;0.90;;;3.40;99.90;;;;;;5082756;28;20204;-58
2023/12/23 03:44:39;;;;;;;6.60;0.83;;;3.40;99.90;;;;;;5079566;28;20209;-58
2023/12/23 03:47:08;;;;;;;4.77;1.27;;;3.40;99.90;;;;;;5054162;28;21008;-58
2023/12/23 03:49:34;;;;;;;10.47;1.23;;;3.50;99.90;;;;;;5073039;28;20188;-61
2023/12/23 03:52:01;;;;;;;6.90;1.37;;;3.60;99.90;;;;;;5076214;28;20841;-57
2023/12/23 03:54:28;;;;;;;3.00;0.83;;;3.80;99.90;;;;;;5075564;28;20194;-55
2023/12/23 03:56:55;;;;;;;6.33;0.97;;;3.90;99.90;;;;;;5074948;28;20251;-57
2023/12/23 03:59:22;;;;;;;2.43;0.60;;;3.90;99.90;;;;;;5086102;28;20258;-59
2023/12/23 04:01:48;;;;;;;1.90;0.70;;;3.90;99.90;;;;;;5059829;28;20252;-58
2023/12/23 04:04:17;;;;;;;1.30;0.40;;;3.90;99.90;;;;;;5089619;28;20198;-57
2023/12/23 04:06:44;;;;;;;5.70;0.90;;;4.00;99.90;;;;;;5093619;28;20674;-57
2023/12/23 04:09:11;;;;;;;4.60;0.93;;;3.90;99.90;;;;;;5085576;28;20239;-57
2023/12/23 04:11:38;;;;;;;5.07;0.93;;;3.90;99.90;;;;;;5090580;28;20770;-57
2023/12/23 04:14:04;;;;;;;3.70;0.97;;;3.80;99.90;;;;;;5087608;28;20181;-56
2023/12/23 04:16:31;;;;;;;1.57;0.63;;;3.70;99.90;;;;;;5087247;28;20213;-58
2023/12/23 04:18:57;;;;;;;4.57;0.97;;;3.60;99.90;;;;;;5059880;28;20198;-58
2023/12/23 04:21:26;;;;;;;4.13;0.70;;;3.50;99.90;;;;;;5094028;28;20217;-57
2023/12/23 04:23:53;;;;;;;4.77;0.90;;;3.50;99.90;;;;;;5070540;28;20988;-58
2023/12/23 04:26:20;;;;;;;2.33;0.50;;;3.40;99.90;;;;;;5079273;28;20254;-58
2023/12/23 04:28:47;;;;;;;3.63;1.00;;;3.40;99.90;;;;;;5077570;28;20218;-58
2023/12/23 04:31:14;;;;;;;3.37;0.60;;;3.30;99.90;;;;;;5084818;28;20263;-58
2023/12/23 04:33:41;;;;;;;7.83;1.00;;;3.30;99.90;;;;;;5059305;28;20190;-58
2023/12/23 04:36:10;;;;;;;2.30;0.63;;;3.40;99.90;;;;;;5079158;28;20190;-57
2023/12/23 04:38:39;;;;;;;5.47;0.67;;;3.40;99.90;;;;;;5077838;28;20178;-58
2023/12/23 04:41:06;;;;;;;4.13;0.70;;;3.40;99.90;;;;;;5084478;28;20326;-58
2023/12/23 04:43:35;;;;;;;4.83;0.73;;;3.40;99.90;;;;;;5075584;28;20193;-57
2023/12/23 04:46:03;;;;;;;4.63;1.00;;;3.30;99.90;;;;;;5079553;28;20190;-58
2023/12/23 04:48:30;;;;;;;5.87;1.17;;;3.40;99.90;;;;;;5049627;28;20198;-56
2023/12/23 04:50:58;;;;;;;5.70;1.30;;;3.30;99.90;;;;;;5087260;28;20229;-58
2023/12/23 04:53:25;;;;;;;3.73;0.90;;;3.30;99.90;;;;;;5074396;28;20194;-58
2023/12/23 04:55:53;;;;;;;3.97;1.33;;;3.30;99.90;;;;;;5080325;28;20256;-58
2023/12/23 04:58:20;;;;;;;4.37;1.00;;;3.30;99.90;;;;;;5081958;28;20251;-59
2023/12/23 05:00:47;;;;;;;5.87;1.00;;;3.40;99.90;;;;;;5064792;28;20712;-58
2023/12/23 05:03:14;;;;;;;4.70;0.63;;;3.50;99.90;;;;;;5078788;28;20213;-57
2023/12/23 05:05:42;;;;;;;3.83;1.23;;;3.50;99.90;;;;;;5057070;28;20259;-58
2023/12/23 05:08:10;;;;;;;5.40;0.93;;;3.60;99.90;;;;;;5078757;28;20198;-58
2023/12/23 05:10:37;;;;;;;2.13;0.67;;;3.60;99.90;;;;;;5088043;28;20205;-57
2023/12/23 05:13:05;;;;;;;0.97;0.40;;;3.60;99.90;;;;;;5087422;28;20209;-56
2023/12/23 05:15:32;;;;;;;0.93;0.70;;;3.60;99.90;;;;;;5079351;28;20194;-58
2023/12/23 05:17:59;;;;;;;3.23;0.50;;;3.60;99.90;;;;;;5074611;28;20203;-58
2023/12/23 05:20:26;;;;;;;5.67;0.73;;;3.60;99.90;;;;;;5051997;28;20245;-58
2023/12/23 05:22:53;;;;;;;6.03;0.80;;;3.60;99.90;;;;;;5078136;28;20284;-58
2023/12/23 05:25:20;;;;;;;2.17;0.83;;;3.60;99.90;;;;;;5078239;28;20291;-58
2023/12/23 05:27:47;;;;;;;1.53;0.40;;;3.60;99.90;;;;;;5078652;28;20246;-58
2023/12/23 05:30:15;;;;;;;6.90;1.07;;;3.60;99.90;;;;;;5085500;28;20275;-57
2023/12/23 05:32:43;;;;;;;2.07;0.80;;;3.60;99.90;;;;;;5078538;28;20840;-57
2023/12/23 05:35:10;;;;;;;4.77;0.73;;;3.60;99.90;;;;;;5077727;28;20202;-58
2023/12/23 05:37:37;;;;;;;2.50;0.73;;;3.60;99.90;;;;;;5048014;28;20268;-58
2023/12/23 05:40:05;;;;;;;6.93;0.73;;;3.60;99.90;;;;;;5087954;28;20210;-56
2023/12/23 05:42:32;;;;;;;4.50;0.73;;;3.60;99.90;;;;;;5089555;28;20202;-58
2023/12/23 05:44:59;;;;;;;1.20;0.70;;;3.70;99.90;;;;;;5091274;28;20198;-56
2023/12/23 05:47:27;;;;;;;4.30;1.10;;;3.70;99.90;;;;;;5068239;28;20290;-57
2023/12/23 05:49:54;;;;;;;2.53;0.90;;;3.70;99.90;;;;;;5078591;28;20226;-58
2023/12/23 05:52:20;;;;;;;3.57;0.93;;;3.60;99.90;;;;;;5054612;28;20616;-58
2023/12/23 05:54:49;;;;;;;3.10;0.83;;;3.60;99.90;;;;;;5067547;28;20211;-59
2023/12/23 05:57:16;;;;;;;3.37;0.70;;;3.50;99.90;;;;;;5081446;28;20263;-57
2023/12/23 05:59:42;;;;;;;6.63;1.20;;;3.50;99.90;;;;;;5079133;28;20242;-59
2023/12/23 06:02:09;;;;;;;4.33;1.03;;;3.40;99.90;;;;;;5085427;28;20263;-59
2023/12/23 06:04:37;;;;;;;2.47;0.83;;;3.30;99.90;;;;;;5077959;28;20185;-59
2023/12/23 06:07:04;;;;;;;5.60;0.77;;;3.30;99.90;;;;;;5064113;28;20205;-59
2023/12/23 06:09:31;;;;;;;6.53;0.77;;;3.30;99.90;;;;;;5081614;28;20664;-56
2023/12/23 06:11:58;;;;;;;4.30;0.63;;;3.20;99.90;;;;;;5072938;28;20202;-59
2023/12/23 06:14:25;;;;;;;3.80;0.80;;;3.20;99.90;;;;;;5073939;28;20190;-58
2023/12/23 06:16:52;;;;;;;3.90;0.87;;;3.20;99.90;;;;;;5077074;28;20193;-59
2023/12/23 06:19:19;;;;;;;6.33;0.97;;;3.10;99.90;;;;;;5084098;28;20218;-57
2023/12/23 06:21:47;;;;;;;5.53;1.17;;;3.10;99.90;;;;;;5054204;28;20229;-59
2023/12/23 06:24:14;;;;;;;2.60;0.50;;;3.00;99.90;;;;;;5069475;28;20213;-57
2023/12/23 06:26:41;;;;;;;3.80;1.00;;;2.80;99.90;;;;;;5086610;28;20247;-60
2023/12/23 06:29:07;;;;;;;2.93;0.90;;;2.70;99.90;;;;;;5086251;28;20633;-58
2023/12/23 06:31:34;;;;;;;2.43;0.50;;;2.50;99.90;;;;;;5074935;28;20213;-58
2023/12/23 06:34:01;;;;;;;3.07;0.40;;;2.30;99.90;;;;;;5078173;28;20194;-57
2023/12/23 06:36:28;;;;;;;2.70;0.60;;;2.20;99.90;;;;;;5071975;28;20198;-56
2023/12/23 06:38:56;;;;;;;3.03;0.50;;;2.10;99.90;;;;;;5071263;28;20668;-58
2023/12/23 06:41:23;;;;;;;2.27;0.47;;;2.00;99.90;;;;;;5085718;28;20218;-57
2023/12/23 06:43:50;;;;;;;0.83;0.40;;;2.00;99.90;;;;;;5088735;28;20194;-58
2023/12/23 06:46:16;;;;;;;1.10;0.60;;;1.90;99.90;;;;;;5092385;28;20596;-55
2023/12/23 06:48:43;;;;;;;1.93;0.37;;;1.90;99.90;;;;;;5070034;28;20195;-57
2023/12/23 06:51:10;;;;;;;1.17;0.20;;;1.80;99.90;;;;;;5072585;28;20251;-58
2023/12/23 06:53:37;;;;;;;1.87;0.37;;;1.80;99.90;;;;;;5067224;28;20874;-58
2023/12/23 06:56:07;;;;;;;2.07;0.60;;;1.90;99.90;;;;;;5080274;28;20197;-58
2023/12/23 06:58:34;;;;;;;0.80;0.27;;;1.80;99.90;;;;;;5069030;28;20194;-58
2023/12/23 07:01:01;;;;;;;2.00;0.30;;;1.80;99.90;;;;;;5073466;28;20266;-58
2023/12/23 07:03:27;;;;;;;4.43;0.50;;;1.80;99.90;;;;;;5076365;28;20205;-57
2023/12/23 07:05:54;;;;;;;1.37;0.50;;;1.80;99.90;;;;;;5075773;28;20198;-57
2023/12/23 07:08:21;;;;;;;1.90;0.43;;;1.90;99.90;;;;;;5069952;28;20606;-57
2023/12/23 07:10:48;;;;;;;3.13;0.53;;;1.90;99.90;;;;;;5056951;28;20222;-57
2023/12/23 07:13:16;;;;;;;5.40;0.83;;;1.90;99.90;;;;;;5071902;28;20210;-56
2023/12/23 07:15:43;;;;;;;1.57;0.40;;;1.90;99.90;;;;;;5078425;28;20185;-57
2023/12/23 07:18:10;;;;;;;2.07;0.77;;;1.90;99.90;;;;;;5086348;28;20244;-56
2023/12/23 07:20:39;;;;;;;2.40;0.50;;;1.80;99.90;;;;;;5075213;28;20213;-58
2023/12/23 07:23:05;;;;;;;3.00;0.63;;;1.90;99.90;;;;;;5076536;28;20241;-56
2023/12/23 07:25:32;;;;;;;2.70;0.63;;;1.80;99.90;;;;;;5057587;28;20210;-57
2023/12/23 07:27:59;;;;;;;2.80;0.63;;;1.80;99.90;;;;;;5082580;28;20193;-58
2023/12/23 07:30:27;;;;;;;2.80;0.47;;;1.80;99.90;;;;;;5086284;28;20302;-56
2023/12/23 07:32:54;;;;;;;4.17;0.73;;;1.80;99.90;;;;;;5092652;28;20219;-56
2023/12/23 07:35:21;;;;;;;1.00;0.40;;;1.80;99.90;;;;;;5075436;28;20209;-55
2023/12/23 07:37:48;;;;;;;4.40;0.90;;;1.80;99.90;;;;;;5076681;28;21357;-57
2023/12/23 07:40:15;;;;;;;1.07;0.50;;;1.80;99.90;;;;;;5052769;28;20303;-56
2023/12/23 07:42:42;;;;;;;1.77;0.40;;;1.80;99.90;;;;;;5085274;28;20254;-55
2023/12/23 07:45:11;;;;;;;2.07;0.57;;;1.80;99.90;;;;;;5093541;28;20193;-57
2023/12/23 07:47:39;;;;;;;0.70;0.60;;;1.80;99.90;;;;;;5079385;28;20214;-56
2023/12/23 07:50:07;;;;;;;2.27;0.60;;;1.80;99.90;;;;;;5089270;28;20214;-55
2023/12/23 07:52:34;;;;;;;0.40;0.40;;;1.70;99.90;;;;;;5076422;28;20353;-56
2023/12/23 07:55:00;;;;;;;2.30;0.50;;;1.70;99.90;;;;;;5061720;28;20232;-54
2023/12/23 07:57:27;;;;;;;1.70;0.67;;;1.70;99.90;;;;;;5085741;28;20584;-54
2023/12/23 07:59:54;;;;;;;1.90;0.60;;;1.80;99.90;;;;;;5068918;28;20279;-57
2023/12/23 08:02:21;;;;;;;2.87;0.60;;;1.80;99.90;;;;;;5075714;28;20684;-55
2023/12/23 08:04:49;;;;;;;0.73;0.67;;;1.70;99.90;;;;;;5072079;28;20861;-56
2023/12/23 08:07:16;;;;;;;3.23;0.60;;;1.70;99.90;;;;;;5077450;28;20198;-57
2023/12/23 08:09:43;;;;;;;0.60;0.60;;;1.70;99.90;;;;;;5055793;28;20318;-57
2023/12/23 08:12:09;;;;;;;2.27;0.60;;;1.70;99.90;;;;;;5072646;28;20194;-55
2023/12/23 08:14:37;;;;;;;1.70;0.97;;;1.70;99.90;;;;;;5078144;28;20190;-57
2023/12/23 08:17:04;;;;;;;4.37;0.83;;;1.70;99.90;;;;;;5082134;28;20226;-57
2023/12/23 08:19:31;;;;;;;1.63;0.77;;;1.60;99.90;;;;;;5079306;28;21013;-57
2023/12/23 08:22:00;;;;;;;0.77;0.77;;;1.70;99.90;;;;;;5088228;28;20751;-57
2023/12/23 08:24:27;;;;;;;2.07;0.80;;;1.70;99.90;;;;;;5064919;28;20202;-55
2023/12/23 08:26:55;;;;;;;0.80;0.80;;;1.70;99.90;;;;;;5081148;28;20204;-57
2023/12/23 08:29:24;;;;;;;0.93;0.70;;;1.70;99.90;;;;;;5089506;28;20225;-57
2023/12/23 08:31:51;;;;;;;1.40;0.80;;;1.70;99.90;;;;;;5072638;28;20320;-54
2023/12/23 08:34:18;;;;;;;0.77;0.63;;;1.70;99.90;;;;;;5091015;28;20711;-57
2023/12/23 08:36:45;;;;;;;0.73;0.73;;;1.70;99.90;;;;;;5075639;28;20190;-58
2023/12/23 08:39:13;;;;;;;2.10;0.50;;;1.70;99.90;;;;;;5082903;28;20193;-55
2023/12/23 08:41:40;;;;;;;2.47;0.90;;;1.70;99.90;;;;;;5065093;28;20210;-58
2023/12/23 08:44:07;;;;;;;2.27;0.60;;;1.70;99.90;;;;;;5098377;28;20242;-56
2023/12/23 08:46:33;;;;;;;1.27;1.03;;;1.70;99.90;;;;;;5090150;28;20715;-58
2023/12/23 08:49:01;;;;;;;1.90;0.70;;;1.70;99.90;;;;;;5093599;28;20599;-57
2023/12/23 08:51:31;;;;;;;1.17;0.97;;;1.70;99.90;;;;;;5088613;28;20221;-57
2023/12/23 08:53:58;;;;;;;2.70;0.70;;;1.70;99.90;;;;;;5081423;28;20290;-58
2023/12/23 08:56:26;;;;;;;1.43;0.70;;;1.70;99.90;;;;;;5054076;28;20214;-54
2023/12/23 08:58:53;;;;;;;3.27;0.80;;;1.70;99.90;;;;;;5069536;28;20199;-57
2023/12/23 09:01:20;;;;;;;1.83;0.70;;;1.70;99.90;;;;;;5085662;28;20987;-58
2023/12/23 09:03:46;;;;;;;1.87;0.80;;;1.70;99.90;;;;;;5076931;28;20307;-55
2023/12/23 09:06:13;;;;;;;2.80;1.50;;;1.70;99.90;;;;;;5082123;28;20247;-56
2023/12/23 09:08:40;;;;;;;2.47;0.90;;;1.70;99.90;;;;;;5084701;28;20271;-58
2023/12/23 09:11:07;;;;;;;2.10;0.83;;;1.70;99.90;;;;;;5059679;28;20229;-56
2023/12/23 09:13:36;;;;;;;1.60;0.90;;;1.70;99.90;;;;;;5083972;28;20289;-55
2023/12/23 09:16:04;;;;;;;3.27;1.10;;;1.80;99.90;;;;;;5078051;28;20206;-58
2023/12/23 09:18:31;;;;;;;1.13;0.90;;;1.70;99.90;;;;;;5089178;28;20216;-57
2023/12/23 09:20:58;;;;;;;1.20;1.07;;;1.70;99.90;;;;;;5075582;28;20637;-58
2023/12/23 09:23:25;;;;;;;1.33;1.23;;;1.80;99.90;;;;;;5087039;28;20198;-57
2023/12/23 09:25:52;;;;;;;1.83;1.30;;;1.80;99.90;;;;;;5056999;28;20203;-57
2023/12/23 09:28:19;;;;;;;3.13;1.13;;;1.80;99.90;;;;;;5087611;28;20215;-55
2023/12/23 09:30:47;;;;;;;4.37;1.60;;;1.80;99.90;;;;;;5084452;28;20301;-58
2023/12/23 09:33:14;;;;;;;2.90;1.50;;;1.90;99.90;;;;;;5075179;28;20198;-55
2023/12/23 09:35:42;;;;;;;3.17;1.43;;;1.90;99.90;;;;;;5071137;28;20201;-57
2023/12/23 09:38:09;;;;;;;4.07;1.70;;;1.90;99.90;;;;;;5088491;28;20282;-58
2023/12/23 09:40:36;;;;;;;2.13;1.17;;;1.90;99.90;;;;;;5060491;28;20218;-58
2023/12/23 09:43:04;;;;;;;1.50;1.30;;;2.00;99.90;;;;;;5092744;28;20246;-56
2023/12/23 09:45:33;;;;;;;3.50;1.10;;;2.00;99.90;;;;;;5079642;28;20608;-56
2023/12/23 09:48:01;;;;;;;1.87;1.37;;;2.00;99.90;;;;;;5075243;28;20683;-57
2023/12/23 09:50:28;;;;;;;2.90;1.67;;;2.00;99.90;;;;;;5079081;28;20217;-57
2023/12/23 09:52:59;;;;;;;1.40;1.30;;;2.00;99.90;;;;;;5074036;28;20295;-58
2023/12/23 09:55:27;;;;;;;4.80;1.70;;;2.00;99.90;;;;;;5069051;28;20194;-57
2023/12/23 09:57:54;;;;;;;2.30;1.53;;;2.10;99.90;;;;;;5072068;28;20195;-58
2023/12/23 10:00:22;;;;;;;2.30;1.60;;;2.10;99.90;;;;;;5073156;28;20268;-56
2023/12/23 10:02:48;;;;;;;3.40;2.30;;;2.10;99.90;;;;;;5070577;28;21669;-58
2023/12/23 10:05:17;;;;;;;1.97;1.50;;;2.10;99.90;;;;;;5082091;28;20194;-57
2023/12/23 10:07:44;;;;;;;2.73;1.60;;;2.10;99.90;;;;;;5080726;28;20197;-58
2023/12/23 10:10:12;;;;;;;2.33;1.63;;;2.20;99.90;;;;;;5079408;28;20714;-56
2023/12/23 10:12:38;;;;;;;2.97;2.13;;;2.20;99.90;;;;;;5053782;28;20201;-57
2023/12/23 10:15:05;;;;;;;2.50;1.43;;;2.20;99.90;;;;;;5090373;28;20556;-58
2023/12/23 10:17:33;;;;;;;3.87;1.83;;;2.20;99.90;;;;;;5070656;28;20198;-57
2023/12/23 10:20:00;;;;;;;2.27;2.07;;;2.30;99.90;;;;;;5080641;28;20217;-54
2023/12/23 10:22:28;;;;;;;4.97;2.03;;;2.30;99.90;;;;;;5067058;28;20234;-57
2023/12/23 10:24:57;;;;;;;4.03;1.93;;;2.30;99.90;;;;;;5081697;28;20194;-59
2023/12/23 10:27:26;;;;;;;2.73;2.00;;;2.30;99.90;;;;;;5061830;28;20652;-58
2023/12/23 10:29:56;;;;;;;3.30;2.17;;;2.40;99.90;;;;;;5082370;28;20213;-59
2023/12/23 10:32:25;;;;;;;5.80;2.33;;;2.40;99.90;;;;;;5075854;28;20190;-57
2023/12/23 10:34:59;;;;;;;4.97;2.13;;;2.40;99.90;;;;;;5078060;28;20251;-58
2023/12/23 10:37:29;;;;;;;5.20;2.20;;;2.50;99.90;;;;;;5072580;28;20193;-58
2023/12/23 10:40:02;;;;;;;3.87;2.00;;;2.50;99.90;;;;;;5085249;28;20226;-58
2023/12/23 10:42:31;;;;;;;5.90;2.17;;;2.50;99.90;;;;;;5058891;28;20214;-57
2023/12/23 10:44:59;;;;;;;4.60;2.00;;;2.50;99.90;;;;;;5085158;28;20208;-59
2023/12/23 10:47:28;;;;;;;4.50;2.30;;;2.60;99.90;;;;;;5079720;28;20221;-57
2023/12/23 10:49:56;;;;;;;4.77;2.20;;;2.60;99.90;;;;;;5070625;28;20841;-58
2023/12/23 10:52:24;;;;;;;3.37;1.93;;;2.60;99.90;;;;;;5082946;28;20217;-57
2023/12/23 10:54:53;;;;;;;5.70;2.67;;;2.60;99.90;;;;;;5075348;28;20285;-56
2023/12/23 10:57:21;;;;;;;2.90;2.40;;;2.60;99.90;;;;;;5058872;28;20210;-56
2023/12/23 10:59:48;;;;;;;4.57;2.37;;;2.60;99.90;;;;;;5078433;28;20938;-58
2023/12/23 11:02:19;;;;;;;3.40;2.67;;;2.70;99.90;;;;;;5081518;28;20265;-59
2023/12/23 11:04:50;;;;;;;3.87;2.30;;;2.70;99.90;;;;;;5071282;28;20214;-58
2023/12/23 11:07:20;;;;;;;4.33;2.67;;;2.70;99.90;;;;;;5084051;28;20187;-58
2023/12/23 11:09:51;;;;;;;4.77;2.50;;;2.80;99.90;;;;;;5076162;28;20214;-58
2023/12/23 11:12:19;;;;;;;4.17;3.10;;;2.80;99.90;;;;;;5072712;28;20230;-58
2023/12/23 11:14:47;;;;;;;6.07;2.43;;;2.90;99.90;;;;;;5056844;28;20210;-58
2023/12/23 11:17:24;;;;;;;4.20;2.90;;;2.90;99.90;;;;;;5087593;28;20280;-58
2023/12/23 11:19:51;;;;;;;4.10;2.50;;;3.00;99.90;;;;;;5074008;28;20255;-57
2023/12/23 11:22:22;;;;;;;5.10;2.77;;;3.00;99.90;;;;;;5081104;28;20279;-56
2023/12/23 11:24:49;;;;;;;5.97;2.53;;;3.00;99.90;;;;;;5067326;28;21660;-58
2023/12/23 11:27:35;;;;;;;5.37;2.90;;;3.00;99.90;;;;;;5088957;28;20205;-57
2023/12/23 11:30:04;;;;;;;4.30;2.47;;;3.10;99.90;;;;;;5078594;28;20282;-58
2023/12/23 11:32:36;;;;;;;3.00;2.43;;;3.10;99.90;;;;;;5087391;28;20272;-58
2023/12/23 11:35:05;;;;;;;3.87;2.43;;;3.10;99.90;;;;;;5081014;28;20209;-58
2023/12/23 11:37:52;;;;;;;5.63;2.70;;;3.20;99.90;;;;;;5070570;28;20205;-58
2023/12/23 11:40:19;;;;;;;2.90;1.90;;;3.20;99.90;;;;;;5071272;28;20222;-57
2023/12/23 11:42:49;;;;;;;4.27;2.43;;;3.20;99.90;;;;;;5077192;28;20210;-57
2023/12/23 11:45:16;;;;;;;2.73;2.20;;;3.20;99.90;;;;;;5066612;28;20739;-58
2023/12/23 11:47:44;;;;;;;3.23;2.00;;;3.30;99.90;;;;;;5066789;28;20250;-57
2023/12/23 11:50:11;;;;;;;6.20;1.80;;;3.30;99.90;;;;;;5079932;28;20225;-58
2023/12/23 11:52:38;;;;;;;2.00;1.90;;;3.30;99.90;;;;;;5074089;28;20770;-58
2023/12/23 11:55:06;;;;;;;3.47;2.43;;;3.30;99.90;;;;;;5082219;28;20229;-58
2023/12/23 11:57:34;;;;;;;4.73;2.30;;;3.40;99.90;;;;;;5070458;28;20209;-58
2023/12/23 12:00:03;;;;;;;4.20;2.57;;;3.40;99.90;;;;;;5060296;28;20217;-57
2023/12/23 12:02:32;;;;;;;3.67;2.60;;;3.50;99.90;;;;;;5082118;28;20241;-57
2023/12/23 12:04:59;;;;;;;3.73;1.80;;;3.50;99.90;;;;;;5074285;28;20688;-58
2023/12/23 12:07:26;;;;;;;2.63;1.70;;;3.50;99.90;;;;;;5071880;28;20198;-58
2023/12/23 12:09:52;;;;;;;4.17;2.40;;;3.60;99.90;;;;;;5075173;28;20213;-58
2023/12/23 12:12:19;;;;;;;1.73;1.63;;;3.60;99.90;;;;;;5058350;28;20209;-58
2023/12/23 12:14:46;;;;;;;4.07;1.80;;;3.60;99.90;;;;;;5074410;28;20225;-58
2023/12/23 12:17:14;;;;;;;4.10;1.50;;;3.60;99.90;;;;;;5059452;28;20209;-58
2023/12/23 12:19:41;;;;;;;2.70;1.57;;;3.70;99.90;;;;;;5080948;28;20848;-58
2023/12/23 12:22:09;;;;;;;3.97;1.50;;;3.70;99.90;;;;;;5079017;28;20262;-58
2023/12/23 12:24:37;;;;;;;4.73;1.87;;;3.80;99.90;;;;;;5082567;28;20194;-58
2023/12/23 12:27:05;;;;;;;5.80;1.40;;;3.80;99.90;;;;;;5085224;28;20198;-55
2023/12/23 12:29:32;;;;;;;2.00;1.10;;;3.90;99.90;;;;;;5085415;28;20636;-58
2023/12/23 12:31:59;;;;;;;2.63;1.20;;;3.90;99.90;;;;;;5061050;28;20650;-58
2023/12/23 12:34:29;;;;;;;2.40;1.20;;;3.90;99.90;;;;;;5085371;28;20195;-58
2023/12/23 12:36:57;;;;;;;4.13;1.23;;;4.00;99.90;;;;;;5084169;28;20189;-57
2023/12/23 12:39:24;;;;;;;1.60;0.80;;;4.00;99.90;;;;;;5070626;28;21008;-57
2023/12/23 12:41:52;;;;;;;2.57;1.17;;;4.00;99.90;;;;;;5086060;28;20267;-58
2023/12/23 12:44:21;;;;;;;2.63;1.07;;;4.00;99.90;;;;;;5074187;28;20980;-57
2023/12/23 12:46:53;;;;;;;5.30;0.90;;;4.00;99.90;;;;;;5061516;28;20587;-58
2023/12/23 12:49:22;;;;;;;4.47;1.60;;;4.00;99.90;;;;;;5076543;28;20194;-58
2023/12/23 12:51:50;;;;;;;1.70;0.73;;;4.00;99.90;;;;;;5086066;28;20669;-57
2023/12/23 12:54:18;;;;;;;3.07;0.90;;;4.10;99.90;;;;;;5078832;28;20922;-59
2023/12/23 12:56:46;;;;;;;2.60;1.00;;;4.10;99.90;;;;;;5083655;28;20203;-58
2023/12/23 12:59:13;;;;;;;5.13;1.00;;;4.10;99.90;;;;;;5076558;28;20210;-58